sensor_id;sensor_type;location;lat;lon;timestamp;P1;durP1;ratioP1;P2;durP2;ratioP2
22705;SDS011;11520;51.198;4.468;2023-03-23T00:02:29;4.03;;;2.65;;
22705;SDS011;11520;51.198;4.468;2023-03-23T00:05:00;6.32;;;3.20;;
22705;SDS011;11520;51.198;4.468;2023-03-23T00:07:28;5.22;;;2.65;;
22705;SDS011;11520;51.198;4.468;2023-03-23T00:09:54;4.88;;;3.10;;
22705;SDS011;11520;51.198;4.468;2023-03-23T00:12:24;5.13;;;3.03;;
22705;SDS011;11520;51.198;4.468;2023-03-23T00:15:05;4.50;;;2.95;;
22705;SDS011;11520;51.198;4.468;2023-03-23T00:17:38;4.43;;;3.28;;
22705;SDS011;11520;51.198;4.468;2023-03-23T00:20:06;5.90;;;2.63;;
22705;SDS011;11520;51.198;4.468;2023-03-23T00:22:35;4.97;;;3.05;;
22705;SDS011;11520;51.198;4.468;2023-03-23T00:25:04;6.03;;;3.42;;
22705;SDS011;11520;51.198;4.468;2023-03-23T00:27:30;6.35;;;3.90;;
22705;SDS011;11520;51.198;4.468;2023-03-23T00:29:56;5.35;;;3.38;;
22705;SDS011;11520;51.198;4.468;2023-03-23T00:32:23;6.25;;;3.55;;
22705;SDS011;11520;51.198;4.468;2023-03-23T00:34:54;5.78;;;2.92;;
22705;SDS011;11520;51.198;4.468;2023-03-23T00:37:20;3.78;;;3.20;;
22705;SDS011;11520;51.198;4.468;2023-03-23T00:39:46;8.30;;;3.70;;
22705;SDS011;11520;51.198;4.468;2023-03-23T00:42:15;4.68;;;2.88;;
22705;SDS011;11520;51.198;4.468;2023-03-23T00:44:43;10.68;;;3.35;;
22705;SDS011;11520;51.198;4.468;2023-03-23T00:47:10;3.88;;;3.22;;
22705;SDS011;11520;51.198;4.468;2023-03-23T00:49:36;4.43;;;3.53;;
22705;SDS011;11520;51.198;4.468;2023-03-23T00:52:03;5.97;;;3.38;;
22705;SDS011;11520;51.198;4.468;2023-03-23T00:54:31;5.28;;;3.47;;
22705;SDS011;11520;51.198;4.468;2023-03-23T00:56:58;5.15;;;3.15;;
22705;SDS011;11520;51.198;4.468;2023-03-23T00:59:24;5.35;;;3.70;;
22705;SDS011;11520;51.198;4.468;2023-03-23T01:01:50;5.75;;;3.92;;
22705;SDS011;11520;51.198;4.468;2023-03-23T01:04:17;5.53;;;3.25;;
22705;SDS011;11520;51.198;4.468;2023-03-23T01:06:44;5.03;;;3.28;;
22705;SDS011;11520;51.198;4.468;2023-03-23T01:09:15;5.35;;;3.70;;
22705;SDS011;11520;51.198;4.468;2023-03-23T01:11:43;8.05;;;3.72;;
22705;SDS011;11520;51.198;4.468;2023-03-23T01:14:09;6.00;;;3.65;;
22705;SDS011;11520;51.198;4.468;2023-03-23T01:16:36;5.25;;;3.63;;
22705;SDS011;11520;51.198;4.468;2023-03-23T01:19:02;5.65;;;3.38;;
22705;SDS011;11520;51.198;4.468;2023-03-23T01:21:28;5.35;;;3.50;;
22705;SDS011;11520;51.198;4.468;2023-03-23T01:23:53;5.28;;;3.60;;
22705;SDS011;11520;51.198;4.468;2023-03-23T01:26:22;5.93;;;3.30;;
22705;SDS011;11520;51.198;4.468;2023-03-23T01:28:51;4.70;;;2.90;;
22705;SDS011;11520;51.198;4.468;2023-03-23T01:31:21;4.53;;;3.17;;
22705;SDS011;11520;51.198;4.468;2023-03-23T01:33:49;6.00;;;3.15;;
22705;SDS011;11520;51.198;4.468;2023-03-23T01:36:21;3.72;;;2.97;;
22705;SDS011;11520;51.198;4.468;2023-03-23T01:38:58;4.60;;;2.92;;
22705;SDS011;11520;51.198;4.468;2023-03-23T01:41:27;7.63;;;3.25;;
22705;SDS011;11520;51.198;4.468;2023-03-23T01:43:57;4.13;;;2.40;;
22705;SDS011;11520;51.198;4.468;2023-03-23T01:46:25;5.05;;;3.05;;
22705;SDS011;11520;51.198;4.468;2023-03-23T01:48:52;5.70;;;2.35;;
22705;SDS011;11520;51.198;4.468;2023-03-23T01:51:18;3.97;;;2.20;;
22705;SDS011;11520;51.198;4.468;2023-03-23T01:53:46;5.07;;;3.05;;
22705;SDS011;11520;51.198;4.468;2023-03-23T01:56:17;4.00;;;3.10;;
22705;SDS011;11520;51.198;4.468;2023-03-23T01:58:51;3.75;;;2.50;;
22705;SDS011;11520;51.198;4.468;2023-03-23T02:01:18;5.55;;;2.67;;
22705;SDS011;11520;51.198;4.468;2023-03-23T02:03:46;5.15;;;3.38;;
22705;SDS011;11520;51.198;4.468;2023-03-23T02:06:13;2.85;;;2.55;;
22705;SDS011;11520;51.198;4.468;2023-03-23T02:08:40;3.70;;;2.67;;
22705;SDS011;11520;51.198;4.468;2023-03-23T02:11:19;4.03;;;2.63;;
22705;SDS011;11520;51.198;4.468;2023-03-23T02:13:46;5.60;;;2.95;;
22705;SDS011;11520;51.198;4.468;2023-03-23T02:19:07;3.80;;;2.90;;
22705;SDS011;11520;51.198;4.468;2023-03-23T02:27:01;4.70;;;2.47;;
22705;SDS011;11520;51.198;4.468;2023-03-23T02:33:28;3.85;;;2.45;;
22705;SDS011;11520;51.198;4.468;2023-03-23T02:35:51;3.40;;;2.40;;
22705;SDS011;11520;51.198;4.468;2023-03-23T02:41:11;2.80;;;2.20;;
22705;SDS011;11520;51.198;4.468;2023-03-23T02:43:40;4.03;;;2.13;;
22705;SDS011;11520;51.198;4.468;2023-03-23T02:46:10;3.10;;;1.92;;
22705;SDS011;11520;51.198;4.468;2023-03-23T02:48:38;7.30;;;2.55;;
22705;SDS011;11520;51.198;4.468;2023-03-23T02:51:05;2.75;;;1.73;;
22705;SDS011;11520;51.198;4.468;2023-03-23T02:53:33;6.03;;;2.08;;
22705;SDS011;11520;51.198;4.468;2023-03-23T02:56:02;3.75;;;1.75;;
22705;SDS011;11520;51.198;4.468;2023-03-23T02:58:32;5.40;;;2.38;;
22705;SDS011;11520;51.198;4.468;2023-03-23T03:00:58;4.80;;;1.67;;
22705;SDS011;11520;51.198;4.468;2023-03-23T03:03:26;3.40;;;1.75;;
22705;SDS011;11520;51.198;4.468;2023-03-23T03:08:48;4.50;;;1.65;;
22705;SDS011;11520;51.198;4.468;2023-03-23T03:11:20;5.13;;;1.55;;
22705;SDS011;11520;51.198;4.468;2023-03-23T03:13:54;4.40;;;1.60;;
22705;SDS011;11520;51.198;4.468;2023-03-23T03:16:52;3.65;;;1.30;;
22705;SDS011;11520;51.198;4.468;2023-03-23T03:19:35;5.03;;;1.70;;
22705;SDS011;11520;51.198;4.468;2023-03-23T03:22:05;7.07;;;1.55;;
22705;SDS011;11520;51.198;4.468;2023-03-23T03:24:35;8.25;;;1.50;;
22705;SDS011;11520;51.198;4.468;2023-03-23T03:27:03;6.88;;;1.83;;
22705;SDS011;11520;51.198;4.468;2023-03-23T03:29:35;8.43;;;1.77;;
22705;SDS011;11520;51.198;4.468;2023-03-23T03:32:08;5.95;;;1.33;;
22705;SDS011;11520;51.198;4.468;2023-03-23T03:34:39;6.80;;;1.77;;
22705;SDS011;11520;51.198;4.468;2023-03-23T03:37:05;4.97;;;1.35;;
22705;SDS011;11520;51.198;4.468;2023-03-23T03:39:35;5.13;;;1.38;;
22705;SDS011;11520;51.198;4.468;2023-03-23T03:42:02;5.95;;;1.63;;
22705;SDS011;11520;51.198;4.468;2023-03-23T03:44:29;6.38;;;1.60;;
22705;SDS011;11520;51.198;4.468;2023-03-23T03:46:56;8.40;;;1.35;;
22705;SDS011;11520;51.198;4.468;2023-03-23T03:49:22;3.20;;;1.55;;
22705;SDS011;11520;51.198;4.468;2023-03-23T03:51:47;5.70;;;1.35;;
22705;SDS011;11520;51.198;4.468;2023-03-23T03:54:13;3.70;;;1.10;;
22705;SDS011;11520;51.198;4.468;2023-03-23T03:56:42;3.42;;;1.20;;
22705;SDS011;11520;51.198;4.468;2023-03-23T03:59:08;5.78;;;1.30;;
22705;SDS011;11520;51.198;4.468;2023-03-23T04:01:36;7.63;;;1.67;;
22705;SDS011;11520;51.198;4.468;2023-03-23T04:04:04;7.13;;;1.27;;
22705;SDS011;11520;51.198;4.468;2023-03-23T04:06:32;4.38;;;1.20;;
22705;SDS011;11520;51.198;4.468;2023-03-23T04:09:01;5.13;;;1.45;;
22705;SDS011;11520;51.198;4.468;2023-03-23T04:11:30;5.93;;;1.27;;
22705;SDS011;11520;51.198;4.468;2023-03-23T04:13:56;5.10;;;1.52;;
22705;SDS011;11520;51.198;4.468;2023-03-23T04:16:22;2.33;;;1.00;;
22705;SDS011;11520;51.198;4.468;2023-03-23T04:18:48;4.88;;;2.13;;
22705;SDS011;11520;51.198;4.468;2023-03-23T04:21:14;3.72;;;1.00;;
22705;SDS011;11520;51.198;4.468;2023-03-23T04:23:42;1.90;;;1.10;;
22705;SDS011;11520;51.198;4.468;2023-03-23T04:26:07;4.68;;;1.50;;
22705;SDS011;11520;51.198;4.468;2023-03-23T04:28:33;5.50;;;1.40;;
22705;SDS011;11520;51.198;4.468;2023-03-23T04:30:59;4.40;;;1.35;;
22705;SDS011;11520;51.198;4.468;2023-03-23T04:33:26;5.60;;;1.50;;
22705;SDS011;11520;51.198;4.468;2023-03-23T04:35:54;5.47;;;1.60;;
22705;SDS011;11520;51.198;4.468;2023-03-23T04:38:21;6.15;;;1.40;;
22705;SDS011;11520;51.198;4.468;2023-03-23T04:40:50;5.72;;;1.20;;
22705;SDS011;11520;51.198;4.468;2023-03-23T04:43:18;7.50;;;1.83;;
22705;SDS011;11520;51.198;4.468;2023-03-23T04:45:47;6.78;;;2.05;;
22705;SDS011;11520;51.198;4.468;2023-03-23T04:48:23;4.40;;;1.92;;
22705;SDS011;11520;51.198;4.468;2023-03-23T04:50:51;6.90;;;2.08;;
22705;SDS011;11520;51.198;4.468;2023-03-23T04:53:17;6.75;;;1.42;;
22705;SDS011;11520;51.198;4.468;2023-03-23T04:55:43;5.60;;;1.48;;
22705;SDS011;11520;51.198;4.468;2023-03-23T04:58:09;7.50;;;1.30;;
22705;SDS011;11520;51.198;4.468;2023-03-23T05:00:37;13.90;;;2.00;;
22705;SDS011;11520;51.198;4.468;2023-03-23T05:03:03;6.38;;;1.52;;
22705;SDS011;11520;51.198;4.468;2023-03-23T05:05:29;6.40;;;1.85;;
22705;SDS011;11520;51.198;4.468;2023-03-23T05:07:57;7.07;;;1.73;;
22705;SDS011;11520;51.198;4.468;2023-03-23T05:11:05;8.93;;;1.55;;
22705;SDS011;11520;51.198;4.468;2023-03-23T05:13:31;5.68;;;1.92;;
22705;SDS011;11520;51.198;4.468;2023-03-23T05:15:58;7.85;;;1.55;;
22705;SDS011;11520;51.198;4.468;2023-03-23T05:18:29;5.20;;;1.25;;
22705;SDS011;11520;51.198;4.468;2023-03-23T05:20:59;4.15;;;1.70;;
22705;SDS011;11520;51.198;4.468;2023-03-23T05:23:25;6.68;;;1.42;;
22705;SDS011;11520;51.198;4.468;2023-03-23T05:25:55;4.28;;;1.75;;
22705;SDS011;11520;51.198;4.468;2023-03-23T05:28:25;8.23;;;1.35;;
22705;SDS011;11520;51.198;4.468;2023-03-23T05:30:52;6.95;;;1.60;;
22705;SDS011;11520;51.198;4.468;2023-03-23T05:33:19;7.60;;;1.55;;
22705;SDS011;11520;51.198;4.468;2023-03-23T05:35:45;6.95;;;1.50;;
22705;SDS011;11520;51.198;4.468;2023-03-23T05:38:12;7.90;;;2.05;;
22705;SDS011;11520;51.198;4.468;2023-03-23T05:40:39;5.22;;;1.17;;
22705;SDS011;11520;51.198;4.468;2023-03-23T05:43:06;5.25;;;1.67;;
22705;SDS011;11520;51.198;4.468;2023-03-23T05:45:33;9.15;;;1.35;;
22705;SDS011;11520;51.198;4.468;2023-03-23T05:47:59;5.50;;;1.65;;
22705;SDS011;11520;51.198;4.468;2023-03-23T05:50:24;5.43;;;1.13;;
22705;SDS011;11520;51.198;4.468;2023-03-23T05:52:51;6.18;;;1.58;;
22705;SDS011;11520;51.198;4.468;2023-03-23T05:55:16;8.80;;;1.50;;
22705;SDS011;11520;51.198;4.468;2023-03-23T05:57:44;5.47;;;1.38;;
22705;SDS011;11520;51.198;4.468;2023-03-23T06:00:10;6.45;;;1.77;;
22705;SDS011;11520;51.198;4.468;2023-03-23T06:02:39;7.22;;;1.77;;
22705;SDS011;11520;51.198;4.468;2023-03-23T06:05:10;7.35;;;1.60;;
22705;SDS011;11520;51.198;4.468;2023-03-23T06:07:39;8.32;;;1.55;;
22705;SDS011;11520;51.198;4.468;2023-03-23T06:10:05;8.27;;;2.05;;
22705;SDS011;11520;51.198;4.468;2023-03-23T06:12:32;4.57;;;1.63;;
22705;SDS011;11520;51.198;4.468;2023-03-23T06:14:58;9.75;;;1.83;;
22705;SDS011;11520;51.198;4.468;2023-03-23T06:17:24;7.00;;;1.60;;
22705;SDS011;11520;51.198;4.468;2023-03-23T06:19:50;5.60;;;2.08;;
22705;SDS011;11520;51.198;4.468;2023-03-23T06:22:16;8.25;;;2.10;;
22705;SDS011;11520;51.198;4.468;2023-03-23T06:24:42;7.32;;;1.65;;
22705;SDS011;11520;51.198;4.468;2023-03-23T06:27:09;9.25;;;2.60;;
22705;SDS011;11520;51.198;4.468;2023-03-23T06:29:35;5.15;;;2.08;;
22705;SDS011;11520;51.198;4.468;2023-03-23T06:32:02;10.90;;;2.80;;
22705;SDS011;11520;51.198;4.468;2023-03-23T06:34:29;8.60;;;2.50;;
22705;SDS011;11520;51.198;4.468;2023-03-23T06:36:57;8.20;;;2.42;;
22705;SDS011;11520;51.198;4.468;2023-03-23T06:39:23;8.15;;;2.30;;
22705;SDS011;11520;51.198;4.468;2023-03-23T06:41:49;3.42;;;1.40;;
22705;SDS011;11520;51.198;4.468;2023-03-23T06:44:15;3.38;;;0.93;;
22705;SDS011;11520;51.198;4.468;2023-03-23T06:46:41;3.97;;;0.85;;
22705;SDS011;11520;51.198;4.468;2023-03-23T06:49:07;1.98;;;0.63;;
22705;SDS011;11520;51.198;4.468;2023-03-23T06:51:36;1.92;;;0.70;;
22705;SDS011;11520;51.198;4.468;2023-03-23T06:54:02;2.92;;;0.80;;
22705;SDS011;11520;51.198;4.468;2023-03-23T06:56:28;4.13;;;1.10;;
22705;SDS011;11520;51.198;4.468;2023-03-23T06:58:55;2.95;;;0.85;;
22705;SDS011;11520;51.198;4.468;2023-03-23T07:01:20;3.55;;;0.90;;
22705;SDS011;11520;51.198;4.468;2023-03-23T07:03:47;4.90;;;0.90;;
22705;SDS011;11520;51.198;4.468;2023-03-23T07:06:13;4.28;;;1.35;;
22705;SDS011;11520;51.198;4.468;2023-03-23T07:08:42;7.15;;;0.85;;
22705;SDS011;11520;51.198;4.468;2023-03-23T07:11:07;5.82;;;0.90;;
22705;SDS011;11520;51.198;4.468;2023-03-23T07:13:35;5.03;;;1.00;;
22705;SDS011;11520;51.198;4.468;2023-03-23T07:16:00;8.10;;;1.23;;
22705;SDS011;11520;51.198;4.468;2023-03-23T07:18:27;2.13;;;1.05;;
22705;SDS011;11520;51.198;4.468;2023-03-23T07:20:53;7.05;;;1.63;;
22705;SDS011;11520;51.198;4.468;2023-03-23T07:23:19;5.15;;;1.02;;
22705;SDS011;11520;51.198;4.468;2023-03-23T07:25:45;5.00;;;1.00;;
22705;SDS011;11520;51.198;4.468;2023-03-23T07:28:13;2.08;;;0.77;;
22705;SDS011;11520;51.198;4.468;2023-03-23T07:30:39;4.00;;;1.60;;
22705;SDS011;11520;51.198;4.468;2023-03-23T07:33:06;3.47;;;1.30;;
22705;SDS011;11520;51.198;4.468;2023-03-23T07:35:33;3.30;;;1.33;;
22705;SDS011;11520;51.198;4.468;2023-03-23T07:37:59;4.07;;;1.00;;
22705;SDS011;11520;51.198;4.468;2023-03-23T07:40:25;2.30;;;0.70;;
22705;SDS011;11520;51.198;4.468;2023-03-23T07:42:52;4.85;;;0.93;;
22705;SDS011;11520;51.198;4.468;2023-03-23T07:45:20;2.97;;;0.80;;
22705;SDS011;11520;51.198;4.468;2023-03-23T07:47:46;5.55;;;1.33;;
22705;SDS011;11520;51.198;4.468;2023-03-23T07:50:12;3.20;;;1.00;;
22705;SDS011;11520;51.198;4.468;2023-03-23T07:52:39;2.30;;;0.85;;
22705;SDS011;11520;51.198;4.468;2023-03-23T07:55:06;3.58;;;1.00;;
22705;SDS011;11520;51.198;4.468;2023-03-23T07:57:33;9.32;;;1.20;;
22705;SDS011;11520;51.198;4.468;2023-03-23T07:59:59;1.88;;;0.93;;
22705;SDS011;11520;51.198;4.468;2023-03-23T08:02:25;3.30;;;0.85;;
22705;SDS011;11520;51.198;4.468;2023-03-23T08:04:51;1.83;;;0.70;;
22705;SDS011;11520;51.198;4.468;2023-03-23T08:07:18;3.92;;;1.08;;
22705;SDS011;11520;51.198;4.468;2023-03-23T08:09:45;5.93;;;0.98;;
22705;SDS011;11520;51.198;4.468;2023-03-23T08:12:12;2.08;;;0.77;;
22705;SDS011;11520;51.198;4.468;2023-03-23T08:14:38;2.83;;;0.90;;
22705;SDS011;11520;51.198;4.468;2023-03-23T08:17:05;3.97;;;0.93;;
22705;SDS011;11520;51.198;4.468;2023-03-23T08:19:30;2.42;;;1.10;;
22705;SDS011;11520;51.198;4.468;2023-03-23T08:22:03;2.67;;;1.10;;
22705;SDS011;11520;51.198;4.468;2023-03-23T08:24:29;5.95;;;0.77;;
22705;SDS011;11520;51.198;4.468;2023-03-23T08:26:57;5.13;;;1.42;;
22705;SDS011;11520;51.198;4.468;2023-03-23T08:29:23;3.65;;;1.10;;
22705;SDS011;11520;51.198;4.468;2023-03-23T08:31:49;5.63;;;1.15;;
22705;SDS011;11520;51.198;4.468;2023-03-23T08:34:15;2.53;;;0.95;;
22705;SDS011;11520;51.198;4.468;2023-03-23T08:36:41;7.72;;;1.92;;
22705;SDS011;11520;51.198;4.468;2023-03-23T08:39:09;5.90;;;1.90;;
22705;SDS011;11520;51.198;4.468;2023-03-23T08:41:35;2.30;;;1.00;;
22705;SDS011;11520;51.198;4.468;2023-03-23T08:44:01;5.60;;;1.02;;
22705;SDS011;11520;51.198;4.468;2023-03-23T08:46:27;2.67;;;1.00;;
22705;SDS011;11520;51.198;4.468;2023-03-23T08:48:53;7.85;;;1.63;;
22705;SDS011;11520;51.198;4.468;2023-03-23T08:51:19;3.90;;;0.80;;
22705;SDS011;11520;51.198;4.468;2023-03-23T08:53:45;2.20;;;0.70;;
22705;SDS011;11520;51.198;4.468;2023-03-23T08:56:12;3.55;;;1.08;;
22705;SDS011;11520;51.198;4.468;2023-03-23T08:58:38;3.08;;;0.93;;
22705;SDS011;11520;51.198;4.468;2023-03-23T09:01:05;3.00;;;0.88;;
22705;SDS011;11520;51.198;4.468;2023-03-23T09:03:33;3.83;;;1.00;;
22705;SDS011;11520;51.198;4.468;2023-03-23T09:06:03;2.65;;;0.90;;
22705;SDS011;11520;51.198;4.468;2023-03-23T09:08:31;2.70;;;0.90;;
22705;SDS011;11520;51.198;4.468;2023-03-23T09:11:04;5.20;;;1.15;;
22705;SDS011;11520;51.198;4.468;2023-03-23T09:13:32;5.03;;;0.98;;
22705;SDS011;11520;51.198;4.468;2023-03-23T09:15:59;4.90;;;1.08;;
22705;SDS011;11520;51.198;4.468;2023-03-23T09:18:26;5.63;;;1.20;;
22705;SDS011;11520;51.198;4.468;2023-03-23T09:20:52;2.97;;;0.93;;
22705;SDS011;11520;51.198;4.468;2023-03-23T09:23:19;6.72;;;1.40;;
22705;SDS011;11520;51.198;4.468;2023-03-23T09:25:45;2.92;;;0.90;;
22705;SDS011;11520;51.198;4.468;2023-03-23T09:28:13;4.50;;;0.90;;
22705;SDS011;11520;51.198;4.468;2023-03-23T09:30:41;5.00;;;1.08;;
22705;SDS011;11520;51.198;4.468;2023-03-23T09:33:07;3.70;;;0.85;;
22705;SDS011;11520;51.198;4.468;2023-03-23T09:35:34;4.95;;;1.00;;
22705;SDS011;11520;51.198;4.468;2023-03-23T09:38:05;2.83;;;1.17;;
22705;SDS011;11520;51.198;4.468;2023-03-23T09:51:24;3.95;;;1.17;;
22705;SDS011;11520;51.198;4.468;2023-03-23T09:53:52;4.32;;;1.42;;
22705;SDS011;11520;51.198;4.468;2023-03-23T09:56:21;4.72;;;1.15;;
22705;SDS011;11520;51.198;4.468;2023-03-23T09:58:57;4.70;;;1.00;;
22705;SDS011;11520;51.198;4.468;2023-03-23T10:01:44;2.22;;;0.90;;
22705;SDS011;11520;51.198;4.468;2023-03-23T10:07:13;2.35;;;0.88;;
22705;SDS011;11520;51.198;4.468;2023-03-23T10:09:42;4.88;;;1.00;;
22705;SDS011;11520;51.198;4.468;2023-03-23T10:12:21;2.50;;;0.80;;
22705;SDS011;11520;51.198;4.468;2023-03-23T10:19:59;2.35;;;1.00;;
22705;SDS011;11520;51.198;4.468;2023-03-23T10:22:54;2.15;;;0.68;;
22705;SDS011;11520;51.198;4.468;2023-03-23T10:25:28;3.08;;;0.75;;
22705;SDS011;11520;51.198;4.468;2023-03-23T10:30:45;2.35;;;1.27;;
22705;SDS011;11520;51.198;4.468;2023-03-23T10:36:05;4.82;;;1.77;;
22705;SDS011;11520;51.198;4.468;2023-03-23T10:38:40;5.10;;;1.30;;
22705;SDS011;11520;51.198;4.468;2023-03-23T10:41:19;5.70;;;1.30;;
22705;SDS011;11520;51.198;4.468;2023-03-23T10:43:46;4.70;;;1.40;;
22705;SDS011;11520;51.198;4.468;2023-03-23T10:48:54;5.63;;;1.20;;
22705;SDS011;11520;51.198;4.468;2023-03-23T10:51:25;5.60;;;1.30;;
22705;SDS011;11520;51.198;4.468;2023-03-23T10:53:58;7.97;;;1.60;;
22705;SDS011;11520;51.198;4.468;2023-03-23T10:59:10;6.22;;;1.30;;
22705;SDS011;11520;51.198;4.468;2023-03-23T11:01:54;6.22;;;1.73;;
22705;SDS011;11520;51.198;4.468;2023-03-23T11:04:24;6.55;;;1.75;;
22705;SDS011;11520;51.198;4.468;2023-03-23T11:06:52;6.13;;;1.52;;
22705;SDS011;11520;51.198;4.468;2023-03-23T11:09:21;4.47;;;1.40;;
22705;SDS011;11520;51.198;4.468;2023-03-23T11:12:00;7.47;;;1.67;;
22705;SDS011;11520;51.198;4.468;2023-03-23T11:14:28;4.90;;;1.83;;
22705;SDS011;11520;51.198;4.468;2023-03-23T11:17:03;6.63;;;1.75;;
22705;SDS011;11520;51.198;4.468;2023-03-23T11:19:33;4.35;;;1.58;;
22705;SDS011;11520;51.198;4.468;2023-03-23T11:24:37;7.07;;;1.30;;
22705;SDS011;11520;51.198;4.468;2023-03-23T11:27:07;9.27;;;1.92;;
22705;SDS011;11520;51.198;4.468;2023-03-23T11:29:34;6.43;;;1.88;;
22705;SDS011;11520;51.198;4.468;2023-03-23T11:32:09;7.82;;;1.40;;
22705;SDS011;11520;51.198;4.468;2023-03-23T11:34:44;9.13;;;1.80;;
22705;SDS011;11520;51.198;4.468;2023-03-23T11:37:28;5.90;;;1.65;;
22705;SDS011;11520;51.198;4.468;2023-03-23T11:56:41;5.28;;;1.38;;
22705;SDS011;11520;51.198;4.468;2023-03-23T11:58:50;7.78;;;1.77;;
22705;SDS011;11520;51.198;4.468;2023-03-23T12:01:24;7.45;;;1.60;;
22705;SDS011;11520;51.198;4.468;2023-03-23T12:20:15;6.70;;;1.55;;
22705;SDS011;11520;51.198;4.468;2023-03-23T12:22:52;6.10;;;1.30;;
22705;SDS011;11520;51.198;4.468;2023-03-23T12:25:34;7.32;;;2.10;;
22705;SDS011;11520;51.198;4.468;2023-03-23T12:28:29;8.45;;;2.03;;
22705;SDS011;11520;51.198;4.468;2023-03-23T12:31:06;4.88;;;1.67;;
22705;SDS011;11520;51.198;4.468;2023-03-23T12:48:40;7.95;;;1.88;;
22705;SDS011;11520;51.198;4.468;2023-03-23T12:57:25;8.98;;;2.15;;
22705;SDS011;11520;51.198;4.468;2023-03-23T13:03:14;10.15;;;2.15;;
22705;SDS011;11520;51.198;4.468;2023-03-23T13:06:02;3.42;;;1.27;;
22705;SDS011;11520;51.198;4.468;2023-03-23T13:23:43;7.28;;;2.05;;
22705;SDS011;11520;51.198;4.468;2023-03-23T13:26:16;8.27;;;1.48;;
22705;SDS011;11520;51.198;4.468;2023-03-23T13:31:44;9.00;;;1.30;;
22705;SDS011;11520;51.198;4.468;2023-03-23T13:34:21;10.20;;;1.70;;
22705;SDS011;11520;51.198;4.468;2023-03-23T13:37:18;7.57;;;2.10;;
22705;SDS011;11520;51.198;4.468;2023-03-23T13:42:22;8.90;;;1.67;;
22705;SDS011;11520;51.198;4.468;2023-03-23T13:50:02;7.45;;;1.92;;
22705;SDS011;11520;51.198;4.468;2023-03-23T13:55:31;7.55;;;1.58;;
22705;SDS011;11520;51.198;4.468;2023-03-23T14:10:36;9.00;;;1.92;;
22705;SDS011;11520;51.198;4.468;2023-03-23T14:18:25;4.63;;;1.20;;
22705;SDS011;11520;51.198;4.468;2023-03-23T14:21:03;4.72;;;1.60;;
22705;SDS011;11520;51.198;4.468;2023-03-23T14:23:39;6.32;;;1.63;;
22705;SDS011;11520;51.198;4.468;2023-03-23T14:26:09;8.23;;;1.35;;
22705;SDS011;11520;51.198;4.468;2023-03-23T14:28:40;4.15;;;1.25;;
22705;SDS011;11520;51.198;4.468;2023-03-23T14:31:25;6.85;;;2.53;;
22705;SDS011;11520;51.198;4.468;2023-03-23T14:33:53;7.65;;;1.48;;
22705;SDS011;11520;51.198;4.468;2023-03-23T14:36:25;6.40;;;1.38;;
22705;SDS011;11520;51.198;4.468;2023-03-23T14:41:44;5.78;;;1.15;;
22705;SDS011;11520;51.198;4.468;2023-03-23T14:44:12;5.03;;;1.33;;
22705;SDS011;11520;51.198;4.468;2023-03-23T14:46:42;6.47;;;1.52;;
22705;SDS011;11520;51.198;4.468;2023-03-23T14:49:10;6.43;;;1.55;;
22705;SDS011;11520;51.198;4.468;2023-03-23T14:51:46;9.27;;;2.15;;
22705;SDS011;11520;51.198;4.468;2023-03-23T14:54:21;8.50;;;1.50;;
22705;SDS011;11520;51.198;4.468;2023-03-23T14:56:53;7.85;;;1.77;;
22705;SDS011;11520;51.198;4.468;2023-03-23T14:59:20;5.03;;;1.42;;
22705;SDS011;11520;51.198;4.468;2023-03-23T15:01:47;7.78;;;1.80;;
22705;SDS011;11520;51.198;4.468;2023-03-23T15:04:19;6.60;;;1.63;;
22705;SDS011;11520;51.198;4.468;2023-03-23T15:06:49;10.13;;;2.38;;
22705;SDS011;11520;51.198;4.468;2023-03-23T15:09:26;6.78;;;1.63;;
22705;SDS011;11520;51.198;4.468;2023-03-23T15:11:56;11.10;;;2.58;;
22705;SDS011;11520;51.198;4.468;2023-03-23T15:14:28;10.63;;;3.35;;
22705;SDS011;11520;51.198;4.468;2023-03-23T15:17:02;8.45;;;2.03;;
22705;SDS011;11520;51.198;4.468;2023-03-23T15:19:37;12.70;;;1.88;;
22705;SDS011;11520;51.198;4.468;2023-03-23T15:22:06;10.95;;;2.08;;
22705;SDS011;11520;51.198;4.468;2023-03-23T15:24:46;10.25;;;2.40;;
22705;SDS011;11520;51.198;4.468;2023-03-23T15:27:23;10.60;;;2.78;;
22705;SDS011;11520;51.198;4.468;2023-03-23T15:29:56;9.05;;;2.10;;
22705;SDS011;11520;51.198;4.468;2023-03-23T15:32:27;8.25;;;1.95;;
22705;SDS011;11520;51.198;4.468;2023-03-23T15:35:04;9.15;;;2.00;;
22705;SDS011;11520;51.198;4.468;2023-03-23T15:37:48;11.18;;;2.28;;
22705;SDS011;11520;51.198;4.468;2023-03-23T15:40:19;10.05;;;2.00;;
22705;SDS011;11520;51.198;4.468;2023-03-23T15:42:47;10.60;;;2.17;;
22705;SDS011;11520;51.198;4.468;2023-03-23T15:50:17;6.30;;;1.75;;
22705;SDS011;11520;51.198;4.468;2023-03-23T15:52:53;7.45;;;2.05;;
22705;SDS011;11520;51.198;4.468;2023-03-23T15:55:24;11.93;;;2.17;;
22705;SDS011;11520;51.198;4.468;2023-03-23T15:57:55;9.05;;;2.17;;
22705;SDS011;11520;51.198;4.468;2023-03-23T16:00:24;8.18;;;2.25;;
22705;SDS011;11520;51.198;4.468;2023-03-23T16:03:00;10.10;;;2.28;;
22705;SDS011;11520;51.198;4.468;2023-03-23T16:05:29;8.23;;;2.20;;
22705;SDS011;11520;51.198;4.468;2023-03-23T16:07:56;7.80;;;1.85;;
22705;SDS011;11520;51.198;4.468;2023-03-23T16:10:22;6.68;;;2.22;;
22705;SDS011;11520;51.198;4.468;2023-03-23T16:12:50;8.55;;;1.80;;
22705;SDS011;11520;51.198;4.468;2023-03-23T16:15:17;5.80;;;1.73;;
22705;SDS011;11520;51.198;4.468;2023-03-23T16:17:43;9.70;;;2.10;;
22705;SDS011;11520;51.198;4.468;2023-03-23T16:20:15;10.05;;;3.15;;
22705;SDS011;11520;51.198;4.468;2023-03-23T16:22:43;10.43;;;2.22;;
22705;SDS011;11520;51.198;4.468;2023-03-23T16:25:13;8.88;;;2.50;;
22705;SDS011;11520;51.198;4.468;2023-03-23T16:27:42;7.90;;;2.40;;
22705;SDS011;11520;51.198;4.468;2023-03-23T16:30:11;7.10;;;2.05;;
22705;SDS011;11520;51.198;4.468;2023-03-23T16:32:42;10.85;;;2.75;;
22705;SDS011;11520;51.198;4.468;2023-03-23T16:35:09;8.85;;;2.60;;
22705;SDS011;11520;51.198;4.468;2023-03-23T16:37:35;10.23;;;2.33;;
22705;SDS011;11520;51.198;4.468;2023-03-23T16:40:02;10.63;;;2.38;;
22705;SDS011;11520;51.198;4.468;2023-03-23T16:42:30;10.35;;;2.15;;
22705;SDS011;11520;51.198;4.468;2023-03-23T16:44:58;8.65;;;2.90;;
22705;SDS011;11520;51.198;4.468;2023-03-23T16:47:25;17.10;;;2.42;;
22705;SDS011;11520;51.198;4.468;2023-03-23T16:49:51;11.65;;;2.55;;
22705;SDS011;11520;51.198;4.468;2023-03-23T16:52:18;6.90;;;1.98;;
22705;SDS011;11520;51.198;4.468;2023-03-23T16:54:44;9.90;;;2.67;;
22705;SDS011;11520;51.198;4.468;2023-03-23T16:57:10;9.73;;;3.10;;
22705;SDS011;11520;51.198;4.468;2023-03-23T16:59:36;13.23;;;2.75;;
22705;SDS011;11520;51.198;4.468;2023-03-23T17:02:01;10.55;;;2.45;;
22705;SDS011;11520;51.198;4.468;2023-03-23T17:04:28;9.20;;;3.15;;
22705;SDS011;11520;51.198;4.468;2023-03-23T17:06:55;6.53;;;1.92;;
22705;SDS011;11520;51.198;4.468;2023-03-23T17:09:23;10.57;;;3.13;;
22705;SDS011;11520;51.198;4.468;2023-03-23T17:11:50;8.50;;;2.40;;
22705;SDS011;11520;51.198;4.468;2023-03-23T17:14:16;12.60;;;2.35;;
22705;SDS011;11520;51.198;4.468;2023-03-23T17:16:42;8.63;;;2.00;;
22705;SDS011;11520;51.198;4.468;2023-03-23T17:19:08;6.93;;;2.03;;
22705;SDS011;11520;51.198;4.468;2023-03-23T17:21:34;7.18;;;1.80;;
22705;SDS011;11520;51.198;4.468;2023-03-23T17:24:00;8.48;;;2.35;;
22705;SDS011;11520;51.198;4.468;2023-03-23T17:26:26;8.38;;;1.90;;
22705;SDS011;11520;51.198;4.468;2023-03-23T17:28:52;7.95;;;1.98;;
22705;SDS011;11520;51.198;4.468;2023-03-23T17:31:17;14.15;;;2.70;;
22705;SDS011;11520;51.198;4.468;2023-03-23T17:33:43;12.27;;;2.47;;
22705;SDS011;11520;51.198;4.468;2023-03-23T17:36:09;7.28;;;1.67;;
22705;SDS011;11520;51.198;4.468;2023-03-23T17:38:36;7.60;;;2.20;;
22705;SDS011;11520;51.198;4.468;2023-03-23T17:41:02;11.02;;;3.33;;